sensor_id;sensor_type;location;lat;lon;timestamp;P1;durP1;ratioP1;P2;durP2;ratioP2
18804;SDS011;9530;48.930;9.526;2022-12-18T00:00:06;44.40;;;19.83;;
18804;SDS011;9530;48.930;9.526;2022-12-18T00:02:34;36.93;;;18.77;;
18804;SDS011;9530;48.930;9.526;2022-12-18T00:05:01;35.33;;;16.90;;
18804;SDS011;9530;48.930;9.526;2022-12-18T00:07:27;35.30;;;18.53;;
18804;SDS011;9530;48.930;9.526;2022-12-18T00:09:55;35.17;;;17.00;;
18804;SDS011;9530;48.930;9.526;2022-12-18T00:12:22;31.17;;;16.07;;
18804;SDS011;9530;48.930;9.526;2022-12-18T00:14:49;27.17;;;14.63;;
18804;SDS011;9530;48.930;9.526;2022-12-18T00:17:15;32.07;;;16.67;;
18804;SDS011;9530;48.930;9.526;2022-12-18T00:19:43;33.50;;;17.47;;
18804;SDS011;9530;48.930;9.526;2022-12-18T00:22:09;38.40;;;19.97;;
18804;SDS011;9530;48.930;9.526;2022-12-18T00:24:36;39.63;;;20.60;;
18804;SDS011;9530;48.930;9.526;2022-12-18T00:27:04;38.63;;;20.70;;
18804;SDS011;9530;48.930;9.526;2022-12-18T00:29:31;34.13;;;15.93;;
18804;SDS011;9530;48.930;9.526;2022-12-18T00:31:57;39.97;;;14.87;;
18804;SDS011;9530;48.930;9.526;2022-12-18T00:34:24;28.20;;;14.30;;
18804;SDS011;9530;48.930;9.526;2022-12-18T00:36:51;24.13;;;11.53;;
18804;SDS011;9530;48.930;9.526;2022-12-18T00:39:18;23.47;;;11.23;;
18804;SDS011;9530;48.930;9.526;2022-12-18T00:41:44;29.00;;;13.07;;
18804;SDS011;9530;48.930;9.526;2022-12-18T00:44:30;20.53;;;10.77;;
18804;SDS011;9530;48.930;9.526;2022-12-18T00:46:57;25.70;;;12.30;;
18804;SDS011;9530;48.930;9.526;2022-12-18T00:49:24;22.77;;;12.27;;
18804;SDS011;9530;48.930;9.526;2022-12-18T00:51:50;25.70;;;12.33;;
18804;SDS011;9530;48.930;9.526;2022-12-18T00:54:17;20.67;;;11.57;;
18804;SDS011;9530;48.930;9.526;2022-12-18T00:56:44;30.17;;;14.60;;
18804;SDS011;9530;48.930;9.526;2022-12-18T00:59:11;30.87;;;14.33;;
18804;SDS011;9530;48.930;9.526;2022-12-18T01:01:39;27.90;;;13.47;;
18804;SDS011;9530;48.930;9.526;2022-12-18T01:04:05;27.37;;;13.73;;
18804;SDS011;9530;48.930;9.526;2022-12-18T01:06:32;25.17;;;12.43;;
18804;SDS011;9530;48.930;9.526;2022-12-18T01:08:59;22.20;;;11.70;;
18804;SDS011;9530;48.930;9.526;2022-12-18T01:11:26;26.20;;;11.50;;
18804;SDS011;9530;48.930;9.526;2022-12-18T01:13:53;19.47;;;10.60;;
18804;SDS011;9530;48.930;9.526;2022-12-18T01:16:20;24.27;;;11.90;;
18804;SDS011;9530;48.930;9.526;2022-12-18T01:18:50;43.70;;;18.70;;
18804;SDS011;9530;48.930;9.526;2022-12-18T01:21:17;55.23;;;23.70;;
18804;SDS011;9530;48.930;9.526;2022-12-18T01:23:44;54.27;;;22.77;;
18804;SDS011;9530;48.930;9.526;2022-12-18T01:26:11;43.70;;;20.10;;
18804;SDS011;9530;48.930;9.526;2022-12-18T01:28:40;48.83;;;22.03;;
18804;SDS011;9530;48.930;9.526;2022-12-18T01:31:09;51.13;;;21.03;;
18804;SDS011;9530;48.930;9.526;2022-12-18T01:33:37;48.63;;;20.97;;
18804;SDS011;9530;48.930;9.526;2022-12-18T01:36:05;47.13;;;21.00;;
18804;SDS011;9530;48.930;9.526;2022-12-18T01:38:32;43.83;;;18.60;;
18804;SDS011;9530;48.930;9.526;2022-12-18T01:40:59;32.27;;;14.07;;
18804;SDS011;9530;48.930;9.526;2022-12-18T01:43:47;32.10;;;15.03;;
18804;SDS011;9530;48.930;9.526;2022-12-18T01:46:16;27.80;;;13.90;;
18804;SDS011;9530;48.930;9.526;2022-12-18T01:48:44;29.00;;;14.33;;
18804;SDS011;9530;48.930;9.526;2022-12-18T01:51:14;25.60;;;12.57;;
18804;SDS011;9530;48.930;9.526;2022-12-18T01:53:41;25.17;;;12.43;;
18804;SDS011;9530;48.930;9.526;2022-12-18T01:56:11;24.30;;;12.23;;
18804;SDS011;9530;48.930;9.526;2022-12-18T01:58:41;23.23;;;12.07;;
18804;SDS011;9530;48.930;9.526;2022-12-18T02:01:14;22.77;;;11.30;;
18804;SDS011;9530;48.930;9.526;2022-12-18T02:03:41;23.53;;;11.63;;
18804;SDS011;9530;48.930;9.526;2022-12-18T02:06:12;24.17;;;12.13;;
18804;SDS011;9530;48.930;9.526;2022-12-18T02:08:46;22.20;;;11.33;;
18804;SDS011;9530;48.930;9.526;2022-12-18T02:11:18;22.33;;;12.67;;
18804;SDS011;9530;48.930;9.526;2022-12-18T02:13:54;21.37;;;11.57;;
18804;SDS011;9530;48.930;9.526;2022-12-18T02:16:29;27.30;;;12.23;;
18804;SDS011;9530;48.930;9.526;2022-12-18T02:19:06;23.77;;;11.60;;
18804;SDS011;9530;48.930;9.526;2022-12-18T02:21:44;25.37;;;12.23;;
18804;SDS011;9530;48.930;9.526;2022-12-18T02:24:17;25.40;;;12.17;;
18804;SDS011;9530;48.930;9.526;2022-12-18T02:26:57;21.47;;;10.63;;
18804;SDS011;9530;48.930;9.526;2022-12-18T02:29:27;27.53;;;14.23;;
18804;SDS011;9530;48.930;9.526;2022-12-18T02:31:58;27.37;;;13.53;;
18804;SDS011;9530;48.930;9.526;2022-12-18T02:34:26;23.77;;;13.27;;
18804;SDS011;9530;48.930;9.526;2022-12-18T02:36:55;22.27;;;11.87;;
18804;SDS011;9530;48.930;9.526;2022-12-18T02:39:25;22.70;;;12.37;;
18804;SDS011;9530;48.930;9.526;2022-12-18T02:41:56;21.67;;;11.20;;
18804;SDS011;9530;48.930;9.526;2022-12-18T02:44:24;23.53;;;11.70;;
18804;SDS011;9530;48.930;9.526;2022-12-18T02:46:51;24.53;;;11.60;;
18804;SDS011;9530;48.930;9.526;2022-12-18T02:49:22;23.70;;;11.30;;
18804;SDS011;9530;48.930;9.526;2022-12-18T02:51:56;22.07;;;11.30;;
18804;SDS011;9530;48.930;9.526;2022-12-18T02:54:49;23.77;;;12.13;;
18804;SDS011;9530;48.930;9.526;2022-12-18T02:57:30;22.07;;;11.50;;
18804;SDS011;9530;48.930;9.526;2022-12-18T03:00:02;22.23;;;11.83;;
18804;SDS011;9530;48.930;9.526;2022-12-18T03:02:33;21.80;;;11.70;;
18804;SDS011;9530;48.930;9.526;2022-12-18T03:05:05;21.17;;;11.60;;
18804;SDS011;9530;48.930;9.526;2022-12-18T03:07:38;24.13;;;11.17;;
18804;SDS011;9530;48.930;9.526;2022-12-18T03:10:09;30.57;;;13.37;;
18804;SDS011;9530;48.930;9.526;2022-12-18T03:12:42;29.00;;;15.67;;
18804;SDS011;9530;48.930;9.526;2022-12-18T03:15:13;25.17;;;12.50;;
18804;SDS011;9530;48.930;9.526;2022-12-18T03:17:45;23.07;;;11.53;;
18804;SDS011;9530;48.930;9.526;2022-12-18T03:20:19;23.33;;;11.40;;
18804;SDS011;9530;48.930;9.526;2022-12-18T03:22:49;22.50;;;11.67;;
18804;SDS011;9530;48.930;9.526;2022-12-18T03:25:19;22.50;;;12.03;;
18804;SDS011;9530;48.930;9.526;2022-12-18T03:27:49;23.57;;;12.50;;
18804;SDS011;9530;48.930;9.526;2022-12-18T03:30:20;21.33;;;11.43;;
18804;SDS011;9530;48.930;9.526;2022-12-18T03:32:47;25.33;;;12.60;;
18804;SDS011;9530;48.930;9.526;2022-12-18T03:35:19;29.33;;;13.20;;
18804;SDS011;9530;48.930;9.526;2022-12-18T03:37:49;26.20;;;13.93;;
18804;SDS011;9530;48.930;9.526;2022-12-18T03:40:16;24.27;;;13.07;;
18804;SDS011;9530;48.930;9.526;2022-12-18T03:42:45;26.90;;;13.80;;
18804;SDS011;9530;48.930;9.526;2022-12-18T03:45:18;23.90;;;12.80;;
18804;SDS011;9530;48.930;9.526;2022-12-18T03:47:52;23.60;;;12.20;;
18804;SDS011;9530;48.930;9.526;2022-12-18T03:50:27;25.20;;;11.93;;
18804;SDS011;9530;48.930;9.526;2022-12-18T03:53:03;26.10;;;12.93;;
18804;SDS011;9530;48.930;9.526;2022-12-18T03:55:40;25.30;;;13.03;;
18804;SDS011;9530;48.930;9.526;2022-12-18T03:58:08;23.37;;;11.70;;
18804;SDS011;9530;48.930;9.526;2022-12-18T04:00:38;22.53;;;12.03;;
18804;SDS011;9530;48.930;9.526;2022-12-18T04:03:06;24.60;;;12.03;;
18804;SDS011;9530;48.930;9.526;2022-12-18T04:05:34;23.43;;;12.30;;
18804;SDS011;9530;48.930;9.526;2022-12-18T04:08:03;24.57;;;12.17;;
18804;SDS011;9530;48.930;9.526;2022-12-18T04:10:30;24.33;;;11.80;;
18804;SDS011;9530;48.930;9.526;2022-12-18T04:12:57;24.03;;;12.90;;
18804;SDS011;9530;48.930;9.526;2022-12-18T04:15:24;24.10;;;12.80;;
18804;SDS011;9530;48.930;9.526;2022-12-18T04:17:52;24.03;;;13.50;;
18804;SDS011;9530;48.930;9.526;2022-12-18T04:20:19;26.47;;;14.60;;
18804;SDS011;9530;48.930;9.526;2022-12-18T04:22:46;23.73;;;14.40;;
18804;SDS011;9530;48.930;9.526;2022-12-18T04:25:13;27.23;;;14.60;;
18804;SDS011;9530;48.930;9.526;2022-12-18T04:27:40;27.33;;;14.10;;
18804;SDS011;9530;48.930;9.526;2022-12-18T04:30:07;21.83;;;12.47;;
18804;SDS011;9530;48.930;9.526;2022-12-18T04:32:35;24.80;;;13.00;;
18804;SDS011;9530;48.930;9.526;2022-12-18T04:35:03;27.90;;;13.77;;
18804;SDS011;9530;48.930;9.526;2022-12-18T04:37:33;26.33;;;13.40;;
18804;SDS011;9530;48.930;9.526;2022-12-18T04:40:00;27.60;;;13.87;;
18804;SDS011;9530;48.930;9.526;2022-12-18T04:42:26;30.07;;;15.37;;
18804;SDS011;9530;48.930;9.526;2022-12-18T04:44:53;33.13;;;15.50;;
18804;SDS011;9530;48.930;9.526;2022-12-18T04:47:20;28.97;;;14.47;;
18804;SDS011;9530;48.930;9.526;2022-12-18T04:49:46;31.63;;;16.03;;
18804;SDS011;9530;48.930;9.526;2022-12-18T04:52:14;29.53;;;14.77;;
18804;SDS011;9530;48.930;9.526;2022-12-18T04:54:41;32.23;;;16.07;;
18804;SDS011;9530;48.930;9.526;2022-12-18T04:57:08;32.00;;;16.60;;
18804;SDS011;9530;48.930;9.526;2022-12-18T04:59:35;32.30;;;15.83;;
18804;SDS011;9530;48.930;9.526;2022-12-18T05:02:02;33.17;;;16.63;;
18804;SDS011;9530;48.930;9.526;2022-12-18T05:04:28;29.70;;;15.97;;
18804;SDS011;9530;48.930;9.526;2022-12-18T05:06:55;33.27;;;17.70;;
18804;SDS011;9530;48.930;9.526;2022-12-18T05:09:23;33.70;;;16.83;;
18804;SDS011;9530;48.930;9.526;2022-12-18T05:11:50;37.17;;;17.87;;
18804;SDS011;9530;48.930;9.526;2022-12-18T05:14:17;32.13;;;17.00;;
18804;SDS011;9530;48.930;9.526;2022-12-18T05:16:43;37.13;;;18.63;;
18804;SDS011;9530;48.930;9.526;2022-12-18T05:19:10;37.25;;;21.33;;
18804;SDS011;9530;48.930;9.526;2022-12-18T05:21:37;37.00;;;19.30;;
18804;SDS011;9530;48.930;9.526;2022-12-18T05:24:04;33.43;;;18.40;;
18804;SDS011;9530;48.930;9.526;2022-12-18T05:26:32;33.40;;;17.60;;
18804;SDS011;9530;48.930;9.526;2022-12-18T05:28:59;37.30;;;19.10;;
18804;SDS011;9530;48.930;9.526;2022-12-18T05:31:26;34.43;;;17.20;;
18804;SDS011;9530;48.930;9.526;2022-12-18T05:33:52;34.47;;;18.43;;
18804;SDS011;9530;48.930;9.526;2022-12-18T05:36:19;33.90;;;17.57;;
18804;SDS011;9530;48.930;9.526;2022-12-18T05:38:46;34.60;;;17.37;;
18804;SDS011;9530;48.930;9.526;2022-12-18T05:41:13;31.07;;;16.63;;
18804;SDS011;9530;48.930;9.526;2022-12-18T05:43:41;32.07;;;16.33;;
18804;SDS011;9530;48.930;9.526;2022-12-18T05:46:08;33.10;;;17.37;;
18804;SDS011;9530;48.930;9.526;2022-12-18T05:48:37;28.50;;;16.33;;
18804;SDS011;9530;48.930;9.526;2022-12-18T05:51:05;34.17;;;17.80;;
18804;SDS011;9530;48.930;9.526;2022-12-18T05:53:33;34.17;;;17.10;;
18804;SDS011;9530;48.930;9.526;2022-12-18T05:56:00;34.20;;;17.20;;
18804;SDS011;9530;48.930;9.526;2022-12-18T05:58:27;32.70;;;16.90;;
18804;SDS011;9530;48.930;9.526;2022-12-18T06:00:56;33.07;;;17.60;;
18804;SDS011;9530;48.930;9.526;2022-12-18T06:03:23;33.03;;;16.87;;
18804;SDS011;9530;48.930;9.526;2022-12-18T06:05:50;28.50;;;15.63;;
18804;SDS011;9530;48.930;9.526;2022-12-18T06:08:17;32.33;;;17.07;;
18804;SDS011;9530;48.930;9.526;2022-12-18T06:10:48;34.93;;;17.37;;
18804;SDS011;9530;48.930;9.526;2022-12-18T06:13:17;32.43;;;16.50;;
18804;SDS011;9530;48.930;9.526;2022-12-18T06:15:43;30.63;;;15.93;;
18804;SDS011;9530;48.930;9.526;2022-12-18T06:18:12;32.60;;;16.50;;
18804;SDS011;9530;48.930;9.526;2022-12-18T06:20:38;29.57;;;15.33;;
18804;SDS011;9530;48.930;9.526;2022-12-18T06:23:06;34.17;;;18.30;;
18804;SDS011;9530;48.930;9.526;2022-12-18T06:25:36;33.27;;;17.00;;
18804;SDS011;9530;48.930;9.526;2022-12-18T06:28:04;31.37;;;15.63;;
18804;SDS011;9530;48.930;9.526;2022-12-18T06:30:31;32.10;;;15.47;;
18804;SDS011;9530;48.930;9.526;2022-12-18T06:32:57;29.73;;;15.20;;
18804;SDS011;9530;48.930;9.526;2022-12-18T06:35:25;31.70;;;15.70;;
18804;SDS011;9530;48.930;9.526;2022-12-18T06:37:52;32.93;;;15.63;;
18804;SDS011;9530;48.930;9.526;2022-12-18T06:40:19;35.57;;;16.07;;
18804;SDS011;9530;48.930;9.526;2022-12-18T06:42:46;34.70;;;16.83;;
18804;SDS011;9530;48.930;9.526;2022-12-18T06:45:12;32.83;;;16.37;;
18804;SDS011;9530;48.930;9.526;2022-12-18T06:47:39;33.63;;;16.07;;
18804;SDS011;9530;48.930;9.526;2022-12-18T06:50:06;35.27;;;16.77;;
18804;SDS011;9530;48.930;9.526;2022-12-18T06:52:34;32.30;;;15.97;;
18804;SDS011;9530;48.930;9.526;2022-12-18T06:55:02;30.83;;;15.40;;
18804;SDS011;9530;48.930;9.526;2022-12-18T06:57:29;31.83;;;15.60;;
18804;SDS011;9530;48.930;9.526;2022-12-18T06:59:55;32.73;;;16.23;;
18804;SDS011;9530;48.930;9.526;2022-12-18T07:02:22;35.33;;;16.60;;
18804;SDS011;9530;48.930;9.526;2022-12-18T07:04:49;37.63;;;17.07;;
18804;SDS011;9530;48.930;9.526;2022-12-18T07:07:16;37.60;;;16.60;;
18804;SDS011;9530;48.930;9.526;2022-12-18T07:09:44;37.93;;;17.83;;
18804;SDS011;9530;48.930;9.526;2022-12-18T07:12:10;33.97;;;16.50;;
18804;SDS011;9530;48.930;9.526;2022-12-18T07:14:37;36.23;;;17.17;;
18804;SDS011;9530;48.930;9.526;2022-12-18T07:17:04;30.50;;;16.13;;
18804;SDS011;9530;48.930;9.526;2022-12-18T07:19:31;29.83;;;15.03;;
18804;SDS011;9530;48.930;9.526;2022-12-18T07:21:57;33.87;;;16.33;;
18804;SDS011;9530;48.930;9.526;2022-12-18T07:24:24;33.80;;;16.23;;
18804;SDS011;9530;48.930;9.526;2022-12-18T07:26:52;37.67;;;16.70;;
18804;SDS011;9530;48.930;9.526;2022-12-18T07:29:19;32.07;;;16.00;;
18804;SDS011;9530;48.930;9.526;2022-12-18T07:31:45;37.67;;;16.73;;
18804;SDS011;9530;48.930;9.526;2022-12-18T07:34:12;36.70;;;16.90;;
18804;SDS011;9530;48.930;9.526;2022-12-18T07:36:40;35.00;;;16.50;;
18804;SDS011;9530;48.930;9.526;2022-12-18T07:39:07;38.30;;;16.13;;
18804;SDS011;9530;48.930;9.526;2022-12-18T07:41:34;37.30;;;17.80;;
18804;SDS011;9530;48.930;9.526;2022-12-18T07:44:02;33.90;;;16.83;;
18804;SDS011;9530;48.930;9.526;2022-12-18T07:46:29;38.90;;;17.77;;
18804;SDS011;9530;48.930;9.526;2022-12-18T07:48:56;36.27;;;17.07;;
18804;SDS011;9530;48.930;9.526;2022-12-18T07:51:22;39.77;;;17.97;;
18804;SDS011;9530;48.930;9.526;2022-12-18T07:53:49;37.20;;;17.57;;
18804;SDS011;9530;48.930;9.526;2022-12-18T07:56:16;35.00;;;17.37;;
18804;SDS011;9530;48.930;9.526;2022-12-18T07:58:43;35.70;;;17.50;;
18804;SDS011;9530;48.930;9.526;2022-12-18T08:01:11;34.80;;;17.63;;
18804;SDS011;9530;48.930;9.526;2022-12-18T08:03:38;34.73;;;17.17;;
18804;SDS011;9530;48.930;9.526;2022-12-18T08:06:07;34.23;;;17.07;;
18804;SDS011;9530;48.930;9.526;2022-12-18T08:08:35;38.33;;;18.43;;
18804;SDS011;9530;48.930;9.526;2022-12-18T08:11:02;34.17;;;16.97;;
18804;SDS011;9530;48.930;9.526;2022-12-18T08:13:29;34.00;;;16.03;;
18804;SDS011;9530;48.930;9.526;2022-12-18T08:15:56;34.47;;;17.30;;
18804;SDS011;9530;48.930;9.526;2022-12-18T08:18:24;32.83;;;16.10;;
18804;SDS011;9530;48.930;9.526;2022-12-18T08:20:51;33.47;;;16.97;;
18804;SDS011;9530;48.930;9.526;2022-12-18T08:23:18;38.97;;;17.60;;
18804;SDS011;9530;48.930;9.526;2022-12-18T08:25:45;34.63;;;17.50;;
18804;SDS011;9530;48.930;9.526;2022-12-18T08:28:12;37.03;;;18.17;;
18804;SDS011;9530;48.930;9.526;2022-12-18T08:30:39;36.60;;;17.50;;
18804;SDS011;9530;48.930;9.526;2022-12-18T08:33:05;35.97;;;17.60;;
18804;SDS011;9530;48.930;9.526;2022-12-18T08:35:35;36.33;;;16.73;;
18804;SDS011;9530;48.930;9.526;2022-12-18T08:38:02;38.33;;;18.03;;
18804;SDS011;9530;48.930;9.526;2022-12-18T08:40:29;33.60;;;16.87;;
18804;SDS011;9530;48.930;9.526;2022-12-18T08:42:56;41.10;;;17.67;;
18804;SDS011;9530;48.930;9.526;2022-12-18T08:45:47;32.40;;;17.37;;
18804;SDS011;9530;48.930;9.526;2022-12-18T08:48:13;38.87;;;17.63;;
18804;SDS011;9530;48.930;9.526;2022-12-18T08:50:41;34.57;;;17.43;;
18804;SDS011;9530;48.930;9.526;2022-12-18T08:53:08;33.70;;;16.63;;
18804;SDS011;9530;48.930;9.526;2022-12-18T08:55:35;35.73;;;17.67;;
18804;SDS011;9530;48.930;9.526;2022-12-18T08:58:01;36.37;;;16.83;;
18804;SDS011;9530;48.930;9.526;2022-12-18T09:00:28;36.77;;;17.97;;
18804;SDS011;9530;48.930;9.526;2022-12-18T09:02:55;32.93;;;16.80;;
18804;SDS011;9530;48.930;9.526;2022-12-18T09:05:21;38.37;;;17.67;;
18804;SDS011;9530;48.930;9.526;2022-12-18T09:07:49;35.27;;;17.73;;
18804;SDS011;9530;48.930;9.526;2022-12-18T09:10:17;33.30;;;16.67;;
18804;SDS011;9530;48.930;9.526;2022-12-18T09:12:43;35.60;;;17.90;;
18804;SDS011;9530;48.930;9.526;2022-12-18T09:15:10;33.60;;;16.87;;
18804;SDS011;9530;48.930;9.526;2022-12-18T09:17:37;31.40;;;15.67;;
18804;SDS011;9530;48.930;9.526;2022-12-18T09:20:04;33.97;;;17.40;;
18804;SDS011;9530;48.930;9.526;2022-12-18T09:22:31;42.33;;;18.10;;
18804;SDS011;9530;48.930;9.526;2022-12-18T09:24:59;35.97;;;17.53;;
18804;SDS011;9530;48.930;9.526;2022-12-18T09:27:26;33.00;;;16.43;;
18804;SDS011;9530;48.930;9.526;2022-12-18T09:29:52;36.37;;;17.07;;
18804;SDS011;9530;48.930;9.526;2022-12-18T09:32:19;31.43;;;15.50;;
18804;SDS011;9530;48.930;9.526;2022-12-18T09:34:46;35.40;;;16.90;;
18804;SDS011;9530;48.930;9.526;2022-12-18T09:37:12;33.23;;;17.33;;
18804;SDS011;9530;48.930;9.526;2022-12-18T09:39:39;34.27;;;16.20;;
18804;SDS011;9530;48.930;9.526;2022-12-18T09:42:09;33.17;;;16.57;;
18804;SDS011;9530;48.930;9.526;2022-12-18T09:44:43;30.97;;;15.80;;
18804;SDS011;9530;48.930;9.526;2022-12-18T09:47:14;34.77;;;17.27;;
18804;SDS011;9530;48.930;9.526;2022-12-18T09:49:45;33.63;;;17.23;;
18804;SDS011;9530;48.930;9.526;2022-12-18T09:52:15;31.20;;;15.47;;
18804;SDS011;9530;48.930;9.526;2022-12-18T09:54:46;34.37;;;16.23;;
18804;SDS011;9530;48.930;9.526;2022-12-18T09:57:19;31.33;;;16.43;;
18804;SDS011;9530;48.930;9.526;2022-12-18T09:59:49;30.43;;;16.03;;
18804;SDS011;9530;48.930;9.526;2022-12-18T10:02:20;32.17;;;16.07;;
18804;SDS011;9530;48.930;9.526;2022-12-18T10:04:59;29.47;;;14.90;;
18804;SDS011;9530;48.930;9.526;2022-12-18T10:07:32;31.90;;;15.87;;
18804;SDS011;9530;48.930;9.526;2022-12-18T10:10:07;31.00;;;15.20;;
18804;SDS011;9530;48.930;9.526;2022-12-18T10:12:41;33.37;;;16.73;;
18804;SDS011;9530;48.930;9.526;2022-12-18T10:15:15;33.27;;;15.47;;
18804;SDS011;9530;48.930;9.526;2022-12-18T10:17:49;30.40;;;15.37;;
18804;SDS011;9530;48.930;9.526;2022-12-18T10:20:24;30.40;;;16.03;;
18804;SDS011;9530;48.930;9.526;2022-12-18T10:22:57;32.00;;;16.23;;
18804;SDS011;9530;48.930;9.526;2022-12-18T10:25:28;31.77;;;16.03;;
18804;SDS011;9530;48.930;9.526;2022-12-18T10:28:06;32.87;;;16.30;;
18804;SDS011;9530;48.930;9.526;2022-12-18T10:30:36;29.63;;;15.63;;
18804;SDS011;9530;48.930;9.526;2022-12-18T10:33:05;30.37;;;15.77;;
18804;SDS011;9530;48.930;9.526;2022-12-18T10:35:33;30.47;;;15.43;;
18804;SDS011;9530;48.930;9.526;2022-12-18T10:38:02;30.43;;;14.87;;
18804;SDS011;9530;48.930;9.526;2022-12-18T10:40:32;34.23;;;16.77;;
18804;SDS011;9530;48.930;9.526;2022-12-18T10:43:05;28.73;;;15.37;;
18804;SDS011;9530;48.930;9.526;2022-12-18T10:45:38;36.07;;;17.57;;
18804;SDS011;9530;48.930;9.526;2022-12-18T10:48:16;31.70;;;15.60;;
18804;SDS011;9530;48.930;9.526;2022-12-18T10:50:47;30.40;;;14.87;;
18804;SDS011;9530;48.930;9.526;2022-12-18T10:53:19;32.20;;;15.23;;
18804;SDS011;9530;48.930;9.526;2022-12-18T10:55:47;30.43;;;15.63;;
18804;SDS011;9530;48.930;9.526;2022-12-18T10:58:21;31.67;;;16.17;;
18804;SDS011;9530;48.930;9.526;2022-12-18T11:01:05;33.73;;;16.47;;
18804;SDS011;9530;48.930;9.526;2022-12-18T11:03:34;32.30;;;16.30;;
18804;SDS011;9530;48.930;9.526;2022-12-18T11:06:05;31.47;;;15.80;;
18804;SDS011;9530;48.930;9.526;2022-12-18T11:08:34;32.70;;;16.23;;
18804;SDS011;9530;48.930;9.526;2022-12-18T11:11:01;30.37;;;15.37;;
18804;SDS011;9530;48.930;9.526;2022-12-18T11:13:29;34.07;;;16.97;;
18804;SDS011;9530;48.930;9.526;2022-12-18T11:15:57;32.83;;;17.43;;
18804;SDS011;9530;48.930;9.526;2022-12-18T11:18:26;34.30;;;16.57;;
18804;SDS011;9530;48.930;9.526;2022-12-18T11:20:55;28.87;;;15.23;;
18804;SDS011;9530;48.930;9.526;2022-12-18T11:23:25;32.33;;;16.03;;
18804;SDS011;9530;48.930;9.526;2022-12-18T11:25:54;30.10;;;16.27;;
18804;SDS011;9530;48.930;9.526;2022-12-18T11:28:26;31.43;;;16.17;;
18804;SDS011;9530;48.930;9.526;2022-12-18T11:31:08;32.50;;;16.53;;
18804;SDS011;9530;48.930;9.526;2022-12-18T11:33:43;32.43;;;16.43;;
18804;SDS011;9530;48.930;9.526;2022-12-18T11:36:12;30.93;;;16.70;;
18804;SDS011;9530;48.930;9.526;2022-12-18T11:38:43;29.77;;;16.23;;
18804;SDS011;9530;48.930;9.526;2022-12-18T11:41:14;28.93;;;15.53;;
18804;SDS011;9530;48.930;9.526;2022-12-18T11:43:48;29.77;;;16.07;;
18804;SDS011;9530;48.930;9.526;2022-12-18T11:46:23;26.90;;;15.20;;
18804;SDS011;9530;48.930;9.526;2022-12-18T11:48:54;30.80;;;15.73;;
18804;SDS011;9530;48.930;9.526;2022-12-18T11:51:25;31.63;;;16.33;;
18804;SDS011;9530;48.930;9.526;2022-12-18T11:53:57;32.93;;;17.27;;
18804;SDS011;9530;48.930;9.526;2022-12-18T11:56:26;30.33;;;16.27;;
18804;SDS011;9530;48.930;9.526;2022-12-18T11:59:00;32.60;;;16.80;;
18804;SDS011;9530;48.930;9.526;2022-12-18T12:01:38;31.40;;;16.53;;
18804;SDS011;9530;48.930;9.526;2022-12-18T12:04:19;27.93;;;15.63;;
18804;SDS011;9530;48.930;9.526;2022-12-18T12:07:11;31.17;;;16.80;;
18804;SDS011;9530;48.930;9.526;2022-12-18T12:09:47;30.67;;;15.87;;
18804;SDS011;9530;48.930;9.526;2022-12-18T12:12:26;31.23;;;16.57;;
18804;SDS011;9530;48.930;9.526;2022-12-18T12:15:13;31.03;;;16.07;;
18804;SDS011;9530;48.930;9.526;2022-12-18T12:17:49;30.87;;;16.40;;
18804;SDS011;9530;48.930;9.526;2022-12-18T12:20:24;32.67;;;16.63;;
18804;SDS011;9530;48.930;9.526;2022-12-18T12:22:58;31.47;;;16.67;;
18804;SDS011;9530;48.930;9.526;2022-12-18T12:25:35;30.97;;;15.60;;
18804;SDS011;9530;48.930;9.526;2022-12-18T12:28:13;31.13;;;16.60;;
18804;SDS011;9530;48.930;9.526;2022-12-18T12:30:54;29.17;;;15.63;;
18804;SDS011;9530;48.930;9.526;2022-12-18T12:33:31;30.97;;;16.23;;
18804;SDS011;9530;48.930;9.526;2022-12-18T12:36:08;30.50;;;15.93;;
18804;SDS011;9530;48.930;9.526;2022-12-18T12:38:42;32.50;;;15.83;;
18804;SDS011;9530;48.930;9.526;2022-12-18T12:41:16;31.43;;;16.93;;
18804;SDS011;9530;48.930;9.526;2022-12-18T12:44:05;30.07;;;16.90;;
18804;SDS011;9530;48.930;9.526;2022-12-18T12:46:35;30.07;;;16.60;;
18804;SDS011;9530;48.930;9.526;2022-12-18T12:49:08;28.80;;;15.60;;
18804;SDS011;9530;48.930;9.526;2022-12-18T12:51:39;28.10;;;15.63;;
18804;SDS011;9530;48.930;9.526;2022-12-18T12:54:11;31.53;;;16.00;;
18804;SDS011;9530;48.930;9.526;2022-12-18T12:56:44;33.93;;;17.63;;
18804;SDS011;9530;48.930;9.526;2022-12-18T12:59:19;28.57;;;15.20;;
18804;SDS011;9530;48.930;9.526;2022-12-18T13:01:52;32.00;;;16.77;;
18804;SDS011;9530;48.930;9.526;2022-12-18T13:04:23;30.47;;;16.07;;
18804;SDS011;9530;48.930;9.526;2022-12-18T13:06:59;30.80;;;16.57;;
18804;SDS011;9530;48.930;9.526;2022-12-18T13:09:29;30.03;;;15.80;;
18804;SDS011;9530;48.930;9.526;2022-12-18T13:12:03;29.43;;;16.03;;
18804;SDS011;9530;48.930;9.526;2022-12-18T13:14:47;29.90;;;16.37;;
18804;SDS011;9530;48.930;9.526;2022-12-18T13:17:15;30.03;;;16.57;;
18804;SDS011;9530;48.930;9.526;2022-12-18T13:20:03;28.37;;;15.50;;
18804;SDS011;9530;48.930;9.526;2022-12-18T13:22:34;29.77;;;16.30;;
18804;SDS011;9530;48.930;9.526;2022-12-18T13:25:02;28.13;;;15.13;;
18804;SDS011;9530;48.930;9.526;2022-12-18T13:28:04;30.17;;;15.80;;
18804;SDS011;9530;48.930;9.526;2022-12-18T13:30:47;25.80;;;15.53;;
18804;SDS011;9530;48.930;9.526;2022-12-18T13:36:16;29.03;;;15.70;;
18804;SDS011;9530;48.930;9.526;2022-12-18T13:48:16;30.10;;;16.30;;
18804;SDS011;9530;48.930;9.526;2022-12-18T13:50:48;29.47;;;16.13;;
18804;SDS011;9530;48.930;9.526;2022-12-18T13:53:19;29.93;;;16.37;;
18804;SDS011;9530;48.930;9.526;2022-12-18T13:55:48;28.67;;;15.30;;
18804;SDS011;9530;48.930;9.526;2022-12-18T13:58:15;28.40;;;15.73;;
18804;SDS011;9530;48.930;9.526;2022-12-18T14:00:44;30.83;;;16.50;;
18804;SDS011;9530;48.930;9.526;2022-12-18T14:03:18;31.13;;;16.73;;
18804;SDS011;9530;48.930;9.526;2022-12-18T14:05:46;31.57;;;16.87;;
18804;SDS011;9530;48.930;9.526;2022-12-18T14:08:20;32.27;;;16.63;;
18804;SDS011;9530;48.930;9.526;2022-12-18T14:10:48;29.97;;;16.47;;
18804;SDS011;9530;48.930;9.526;2022-12-18T14:13:21;28.17;;;15.60;;
18804;SDS011;9530;48.930;9.526;2022-12-18T14:15:54;31.63;;;16.13;;
18804;SDS011;9530;48.930;9.526;2022-12-18T14:18:22;30.80;;;16.77;;
18804;SDS011;9530;48.930;9.526;2022-12-18T14:20:51;32.13;;;17.30;;
18804;SDS011;9530;48.930;9.526;2022-12-18T14:23:29;33.63;;;16.97;;
18804;SDS011;9530;48.930;9.526;2022-12-18T14:25:57;31.73;;;16.87;;
18804;SDS011;9530;48.930;9.526;2022-12-18T14:28:25;31.73;;;16.20;;
18804;SDS011;9530;48.930;9.526;2022-12-18T14:30:52;31.00;;;16.87;;
18804;SDS011;9530;48.930;9.526;2022-12-18T14:33:21;31.67;;;16.40;;
18804;SDS011;9530;48.930;9.526;2022-12-18T14:35:53;32.50;;;16.53;;
18804;SDS011;9530;48.930;9.526;2022-12-18T14:38:23;30.30;;;16.27;;
18804;SDS011;9530;48.930;9.526;2022-12-18T14:40:52;30.23;;;16.00;;
18804;SDS011;9530;48.930;9.526;2022-12-18T14:43:20;29.60;;;16.00;;
18804;SDS011;9530;48.930;9.526;2022-12-18T14:45:47;31.33;;;16.17;;
18804;SDS011;9530;48.930;9.526;2022-12-18T14:48:17;31.27;;;16.13;;
18804;SDS011;9530;48.930;9.526;2022-12-18T14:50:45;28.80;;;15.80;;
18804;SDS011;9530;48.930;9.526;2022-12-18T14:53:22;33.23;;;16.97;;
18804;SDS011;9530;48.930;9.526;2022-12-18T14:55:52;31.10;;;17.10;;
18804;SDS011;9530;48.930;9.526;2022-12-18T14:58:19;29.83;;;16.30;;
18804;SDS011;9530;48.930;9.526;2022-12-18T15:00:45;29.13;;;16.23;;